createdAt,value
2023-03-03T00:02:12.894Z,100794.59
2023-03-03T00:04:41.222Z,100797.94
2023-03-03T00:07:09.034Z,100802.25
2023-03-03T00:09:36.969Z,100797.03
2023-03-03T00:12:19.133Z,100790.06
2023-03-03T00:14:47.121Z,100787.38
2023-03-03T00:17:23.205Z,100788.53
2023-03-03T00:19:51.956Z,100788.31
2023-03-03T00:22:38.181Z,100787.41
2023-03-03T00:25:33.855Z,100789.94
2023-03-03T00:28:28.792Z,100780.75
2023-03-03T00:31:01.873Z,100775.09
2023-03-03T00:33:41.516Z,100768.06
2023-03-03T00:36:15.340Z,100754.41
2023-03-03T00:38:43.259Z,100756.00
2023-03-03T00:41:31.711Z,100756.09
2023-03-03T00:43:59.673Z,100750.09
2023-03-03T00:46:27.997Z,100752.69
2023-03-03T00:48:55.601Z,100746.56
2023-03-03T00:51:23.494Z,100744.13
2023-03-03T00:53:51.632Z,100734.84
2023-03-03T00:56:19.631Z,100733.78
2023-03-03T00:58:50.411Z,100739.63
2023-03-03T01:01:20.828Z,100733.72
2023-03-03T01:03:52.553Z,100735.78
2023-03-03T01:06:20.575Z,100725.56
2023-03-03T01:08:48.316Z,100722.44
2023-03-03T01:11:28.670Z,100720.69
2023-03-03T01:13:57.481Z,100723.22
2023-03-03T01:16:25.492Z,100729.03
2023-03-03T01:18:53.251Z,100720.44
2023-03-03T01:21:22.358Z,100716.00
2023-03-03T01:23:50.068Z,100705.72
2023-03-03T01:26:18.210Z,100700.53
2023-03-03T01:28:46.043Z,100697.91
2023-03-03T01:31:14.083Z,100693.19
2023-03-03T01:33:41.817Z,100677.50
2023-03-03T01:36:09.947Z,100684.44
2023-03-03T01:38:39.108Z,100676.34
2023-03-03T01:41:07.084Z,100692.09
2023-03-03T01:43:34.815Z,100686.16
2023-03-03T01:46:02.642Z,100675.94
2023-03-03T01:48:40.556Z,100668.94
2023-03-03T01:51:28.425Z,100674.28
2023-03-03T01:54:01.573Z,100678.81
2023-03-03T01:56:30.409Z,100677.09
2023-03-03T01:59:21.438Z,100681.94
2023-03-03T02:01:50.122Z,100676.66
2023-03-03T02:04:19.192Z,100677.50
2023-03-03T02:06:54.802Z,100674.28
2023-03-03T02:09:48.152Z,100671.47
2023-03-03T02:12:20.425Z,100672.81
2023-03-03T02:14:48.194Z,100669.84
2023-03-03T02:17:16.515Z,100671.88
2023-03-03T02:20:06.007Z,100669.53
2023-03-03T02:23:13.445Z,100674.97
2023-03-03T02:25:49.808Z,100681.25
2023-03-03T02:28:17.914Z,100669.53
2023-03-03T02:30:46.733Z,100671.41
2023-03-03T02:33:14.950Z,100665.66
2023-03-03T02:35:43.230Z,100659.81
2023-03-03T02:38:20.691Z,100663.44
2023-03-03T02:41:01.716Z,100656.69
2023-03-03T02:43:41.868Z,100665.38
2023-03-03T02:46:11.740Z,100662.00
2023-03-03T02:48:39.775Z,100662.88
2023-03-03T02:51:07.830Z,100660.56
2023-03-03T02:53:35.745Z,100655.41
2023-03-03T02:56:04.563Z,100662.34
2023-03-03T02:58:32.626Z,100656.47
2023-03-03T03:01:00.739Z,100651.41
2023-03-03T03:03:29.078Z,100658.09
2023-03-03T03:05:57.643Z,100651.28
2023-03-03T03:08:26.626Z,100652.91
2023-03-03T03:10:54.963Z,100641.91
2023-03-03T03:13:24.548Z,100643.69
2023-03-03T03:15:52.768Z,100637.88
2023-03-03T03:18:21.082Z,100643.75
2023-03-03T03:20:50.417Z,100642.75
2023-03-03T03:23:18.595Z,100645.44
2023-03-03T03:25:46.852Z,100645.63
2023-03-03T03:28:21.316Z,100643.19
2023-03-03T03:30:52.325Z,100638.13
2023-03-03T03:33:22.449Z,100640.16
2023-03-03T03:35:51.706Z,100640.78
2023-03-03T03:38:20.050Z,100638.06
2023-03-03T03:40:49.157Z,100639.78
2023-03-03T03:43:17.257Z,100629.41
2023-03-03T03:45:46.102Z,100644.69
2023-03-03T03:48:17.179Z,100643.56
2023-03-03T03:50:48.846Z,100642.69
2023-03-03T03:53:18.301Z,100638.34
2023-03-03T03:55:47.588Z,100638.66
2023-03-03T03:58:17.754Z,100628.97
2023-03-03T04:00:50.634Z,100619.34
2023-03-03T04:03:20.289Z,100622.44
2023-03-03T04:05:52.574Z,100614.53
2023-03-03T04:08:21.557Z,100622.84
2023-03-03T04:10:49.689Z,100626.63
2023-03-03T04:13:17.831Z,100622.22
2023-03-03T04:15:46.363Z,100613.63
2023-03-03T04:18:14.728Z,100616.03
2023-03-03T04:20:42.764Z,100619.53
2023-03-03T04:23:12.033Z,100612.75
2023-03-03T04:25:40.261Z,100609.28
2023-03-03T04:28:18.346Z,100603.94
2023-03-03T04:30:46.830Z,100602.06
2023-03-03T04:33:17.579Z,100594.38
2023-03-03T04:35:47.112Z,100598.59
2023-03-03T04:38:15.637Z,100593.47
2023-03-03T04:40:44.152Z,100586.84
2023-03-03T04:43:14.589Z,100595.13
2023-03-03T04:45:42.814Z,100589.94
2023-03-03T04:48:11.338Z,100591.41
2023-03-03T04:50:39.044Z,100586.41
2023-03-03T04:53:06.995Z,100585.13
2023-03-03T04:55:37.959Z,100580.59
2023-03-03T04:58:07.147Z,100577.31
2023-03-03T05:00:34.942Z,100575.34
2023-03-03T05:03:04.309Z,100572.63
2023-03-03T05:05:32.346Z,100570.16
2023-03-03T05:08:00.338Z,100575.91
2023-03-03T05:10:28.201Z,100560.50
2023-03-03T05:12:56.260Z,100567.59
2023-03-03T05:15:24.285Z,100573.63
2023-03-03T05:17:53.501Z,100576.19
2023-03-03T05:20:21.133Z,100581.66
2023-03-03T05:22:49.096Z,100573.84
2023-03-03T05:25:16.914Z,100573.13
2023-03-03T05:27:45.420Z,100568.16
2023-03-03T05:30:13.448Z,100568.19
2023-03-03T05:32:41.305Z,100572.91
2023-03-03T05:35:09.315Z,100566.19
2023-03-03T05:37:37.433Z,100573.28
2023-03-03T05:40:05.600Z,100571.84
2023-03-03T05:42:33.552Z,100561.97
2023-03-03T05:45:01.240Z,100554.81
2023-03-03T05:47:30.082Z,100563.09
2023-03-03T05:49:57.754Z,100558.72
2023-03-03T05:52:25.757Z,100567.50
2023-03-03T05:54:53.354Z,100564.50
2023-03-03T05:57:21.290Z,100559.47
2023-03-03T05:59:48.964Z,100553.63
2023-03-03T06:02:16.915Z,100551.03
2023-03-03T06:04:44.589Z,100550.97
2023-03-03T06:07:12.642Z,100549.44
2023-03-03T06:09:40.442Z,100552.25
2023-03-03T06:12:08.388Z,100547.53
2023-03-03T06:14:36.075Z,100543.28
2023-03-03T06:17:04.131Z,100550.22
2023-03-03T06:19:32.038Z,100559.88
2023-03-03T06:22:00.890Z,100545.94
2023-03-03T06:24:30.468Z,100561.53
2023-03-03T06:26:59.500Z,100565.22
2023-03-03T06:29:28.071Z,100561.06
2023-03-03T06:31:56.211Z,100555.16
2023-03-03T06:34:23.893Z,100558.91
2023-03-03T06:36:52.321Z,100559.34
2023-03-03T06:39:20.119Z,100558.72
2023-03-03T06:41:47.763Z,100545.72
2023-03-03T06:44:15.775Z,100556.56
2023-03-03T06:46:43.533Z,100550.94
2023-03-03T06:49:11.432Z,100551.88
2023-03-03T06:51:43.990Z,100553.91
2023-03-03T06:54:30.273Z,100566.31
2023-03-03T06:57:08.998Z,100557.00
2023-03-03T06:59:37.013Z,100549.28
2023-03-03T07:02:16.090Z,100556.16
2023-03-03T07:04:45.536Z,100564.69
2023-03-03T07:07:24.905Z,100562.06
2023-03-03T07:09:55.969Z,100568.09
2023-03-03T07:12:30.206Z,100562.91
2023-03-03T07:15:24.524Z,100552.66
2023-03-03T07:17:59.680Z,100568.09
2023-03-03T07:20:38.752Z,100566.38
2023-03-03T07:23:26.770Z,100558.72
2023-03-03T07:25:55.207Z,100561.31
2023-03-03T07:28:29.638Z,100550.00
2023-03-03T07:30:58.880Z,100554.28
2023-03-03T07:33:31.961Z,100552.56
2023-03-03T07:36:02.038Z,100551.50
2023-03-03T07:38:40.350Z,100564.28
2023-03-03T07:41:17.721Z,100567.78
2023-03-03T07:43:54.819Z,100564.31
2023-03-03T07:46:25.657Z,100568.56
2023-03-03T07:48:54.690Z,100563.53
2023-03-03T07:51:29.877Z,100571.38
2023-03-03T07:54:15.979Z,100568.09
2023-03-03T07:56:44.039Z,100565.50
2023-03-03T07:59:30.306Z,100574.13
2023-03-03T08:01:58.848Z,100577.56
2023-03-03T08:04:50.997Z,100584.38
2023-03-03T08:07:21.773Z,100585.19
2023-03-03T08:10:29.580Z,100586.13
2023-03-03T08:13:01.438Z,100589.56
2023-03-03T08:15:36.785Z,100584.50
2023-03-03T08:18:35.694Z,100594.84
2023-03-03T08:21:14.676Z,100592.34
2023-03-03T08:23:42.865Z,100600.94
2023-03-03T08:26:12.825Z,100606.13
2023-03-03T08:28:41.059Z,100601.78
2023-03-03T08:31:18.345Z,100608.69
2023-03-03T08:33:50.460Z,100605.25
2023-03-03T08:36:18.548Z,100600.91
2023-03-03T08:38:46.623Z,100606.97
2023-03-03T08:41:14.391Z,100611.31
2023-03-03T08:43:43.302Z,100628.56
2023-03-03T08:46:11.920Z,100638.78
2023-03-03T08:48:39.997Z,100630.09
2023-03-03T08:51:07.747Z,100625.75
2023-03-03T08:53:36.691Z,100624.91
2023-03-03T08:56:05.546Z,100618.00
2023-03-03T08:58:35.885Z,100629.16
2023-03-03T09:01:04.908Z,100626.59
2023-03-03T09:03:33.055Z,100628.38
2023-03-03T09:06:00.716Z,100625.72
2023-03-03T09:08:28.848Z,100621.44
2023-03-03T09:10:56.783Z,100621.44
2023-03-03T09:13:24.758Z,100611.06
2023-03-03T09:15:52.893Z,100616.34
2023-03-03T09:18:27.312Z,100619.81
2023-03-03T09:20:57.612Z,100618.03
2023-03-03T09:23:43.178Z,100604.22
2023-03-03T09:26:13.902Z,100602.63
2023-03-03T09:28:42.342Z,100591.44
2023-03-03T09:31:36.948Z,100586.28
2023-03-03T09:34:20.927Z,100576.81
2023-03-03T09:36:52.395Z,100574.25
2023-03-03T09:39:30.140Z,100572.53
2023-03-03T09:42:00.655Z,100571.66
2023-03-03T09:44:34.410Z,100561.31
2023-03-03T09:47:14.111Z,100567.34
2023-03-03T09:50:18.851Z,100556.16
2023-03-03T09:53:05.570Z,100557.03
2023-03-03T09:55:45.222Z,100569.06
2023-03-03T09:58:31.769Z,100555.28
2023-03-03T10:01:31.908Z,100563.03
2023-03-03T10:04:31.148Z,100562.19
2023-03-03T10:07:01.887Z,100565.59
2023-03-03T10:09:58.396Z,100565.63
2023-03-03T10:12:50.692Z,100568.22
2023-03-03T10:15:48.945Z,100573.38
2023-03-03T10:18:32.889Z,100578.56
2023-03-03T10:21:06.550Z,100568.22
2023-03-03T10:23:43.428Z,100583.72
2023-03-03T10:26:45.170Z,100579.44
2023-03-03T10:29:24.243Z,100572.53
2023-03-03T10:32:19.044Z,100575.13
2023-03-03T10:35:05.621Z,100581.97
2023-03-03T10:37:57.866Z,100588.00
2023-03-03T10:40:33.175Z,100587.09
2023-03-03T10:43:22.459Z,100582.75
2023-03-03T10:46:15.809Z,100587.03
2023-03-03T10:49:14.787Z,100588.75
2023-03-03T10:51:42.995Z,100587.94
2023-03-03T10:54:32.566Z,100592.25
2023-03-03T10:57:23.311Z,100582.72
2023-03-03T11:00:26.048Z,100576.78
2023-03-03T11:03:12.420Z,100583.63
2023-03-03T11:05:54.964Z,100580.16
2023-03-03T11:08:35.448Z,100576.63
2023-03-03T11:11:11.070Z,100584.13
2023-03-03T11:13:39.022Z,100576.34
2023-03-03T11:16:30.818Z,100581.59
2023-03-03T11:19:26.108Z,100581.56
2023-03-03T11:22:14.947Z,100579.94
2023-03-03T11:25:03.680Z,100571.28
2023-03-03T11:27:43.480Z,100574.63
2023-03-03T11:30:39.905Z,100577.22
2023-03-03T11:33:14.734Z,100566.75
2023-03-03T11:35:53.543Z,100574.56
2023-03-03T11:38:33.463Z,100576.94
2023-03-03T11:41:22.882Z,100570.03
2023-03-03T11:44:27.497Z,100569.22
2023-03-03T11:47:10.880Z,100560.59
2023-03-03T11:49:46.500Z,100559.72
2023-03-03T11:52:43.080Z,100564.19
2023-03-03T11:55:16.227Z,100562.44
2023-03-03T11:58:02.988Z,100569.34
2023-03-03T12:00:55.386Z,100570.22
2023-03-03T12:03:57.250Z,100569.34
2023-03-03T12:06:34.348Z,100575.38
2023-03-03T12:09:14.029Z,100573.63
2023-03-03T12:11:41.640Z,100575.34
2023-03-03T12:14:44.775Z,100573.50
2023-03-03T12:17:50.842Z,100567.44
2023-03-03T12:20:48.445Z,100568.25
2023-03-03T12:23:46.449Z,100570.88
2023-03-03T12:26:38.518Z,100574.38
2023-03-03T12:29:22.634Z,100576.09
2023-03-03T12:32:15.209Z,100573.50
2023-03-03T12:34:58.763Z,100571.00
2023-03-03T12:37:53.553Z,100579.38
2023-03-03T12:40:40.923Z,100575.88
2023-03-03T12:43:24.361Z,100574.97
2023-03-03T12:46:11.423Z,100564.72
2023-03-03T12:48:44.631Z,100566.72
2023-03-03T12:51:24.833Z,100564.00
2023-03-03T12:54:07.567Z,100566.63
2023-03-03T12:56:48.722Z,100572.63
2023-03-03T12:59:46.132Z,100561.31
2023-03-03T13:02:47.224Z,100565.75
2023-03-03T13:05:45.719Z,100570.00
2023-03-03T13:08:51.693Z,100563.13
2023-03-03T13:11:57.498Z,100558.16
2023-03-03T13:14:28.262Z,100558.09
2023-03-03T13:17:08.107Z,100558.97
2023-03-03T13:20:01.120Z,100559.84
2023-03-03T13:22:39.693Z,100563.97
2023-03-03T13:25:20.692Z,100560.66
2023-03-03T13:27:54.803Z,100560.38
2023-03-03T13:30:23.853Z,100557.00
2023-03-03T13:32:57.888Z,100561.28
2023-03-03T13:35:44.493Z,100561.19
2023-03-03T13:38:42.501Z,100550.28
2023-03-03T13:41:35.364Z,100556.09
2023-03-03T13:44:11.218Z,100545.13
2023-03-03T13:47:02.730Z,100548.50
2023-03-03T13:49:33.689Z,100539.00
2023-03-03T13:52:14.026Z,100541.72
2023-03-03T13:55:10.529Z,100541.81
2023-03-03T13:57:44.569Z,100541.78
2023-03-03T14:00:54.271Z,100530.50
2023-03-03T14:04:13.454Z,100534.81
2023-03-03T14:06:50.283Z,100533.13
2023-03-03T14:09:26.835Z,100529.59
2023-03-03T14:12:00.665Z,100536.44
2023-03-03T14:14:28.453Z,100528.81
2023-03-03T14:17:25.866Z,100525.44
2023-03-03T14:20:06.687Z,100529.72
2023-03-03T14:23:01.248Z,100533.09
2023-03-03T14:25:51.586Z,100534.00
2023-03-03T14:28:23.513Z,100532.22
2023-03-03T14:30:55.597Z,100534.00
2023-03-03T14:33:29.664Z,100535.59
2023-03-03T14:35:57.491Z,100531.34
2023-03-03T14:38:38.029Z,100536.44
2023-03-03T14:41:19.215Z,100532.22
2023-03-03T14:44:23.249Z,100540.69
2023-03-03T14:47:09.359Z,100537.22
2023-03-03T14:49:39.877Z,100527.03
2023-03-03T14:52:16.349Z,100535.78
2023-03-03T14:54:48.067Z,100526.00
2023-03-03T14:57:46.068Z,100523.38
2023-03-03T15:00:14.878Z,100525.78
2023-03-03T15:03:02.753Z,100522.44
2023-03-03T15:05:34.773Z,100525.84
2023-03-03T15:08:05.343Z,100520.81
2023-03-03T15:10:46.182Z,100513.88
2023-03-03T15:13:31.412Z,100528.47
2023-03-03T15:16:03.389Z,100527.56
2023-03-03T15:18:33.348Z,100525.03
2023-03-03T15:21:26.143Z,100528.66
2023-03-03T15:24:13.259Z,100533.06
2023-03-03T15:27:23.054Z,100528.56
2023-03-03T15:30:30.672Z,100528.66
2023-03-03T15:33:16.818Z,100534.66
2023-03-03T15:35:54.618Z,100532.91
2023-03-03T15:38:50.673Z,100530.28
2023-03-03T15:41:37.767Z,100526.06
2023-03-03T15:44:33.303Z,100521.72
2023-03-03T15:47:21.254Z,100512.25
2023-03-03T15:50:26.020Z,100516.63
2023-03-03T15:53:13.002Z,100515.84
2023-03-03T15:56:06.339Z,100512.34
2023-03-03T15:59:07.999Z,100519.25
2023-03-03T16:02:03.346Z,100520.03
2023-03-03T16:04:35.052Z,100513.75
2023-03-03T16:07:41.556Z,100517.19
2023-03-03T16:10:34.910Z,100518.03
2023-03-03T16:13:23.734Z,100519.78
2023-03-03T16:16:29.054Z,100521.59
2023-03-03T16:19:27.076Z,100512.16
2023-03-03T16:22:05.903Z,100520.59
2023-03-03T16:25:25.397Z,100510.19
2023-03-03T16:28:16.858Z,100516.19
2023-03-03T16:31:01.729Z,100514.41
2023-03-03T16:33:44.033Z,100504.97
2023-03-03T16:36:36.948Z,100504.13
2023-03-03T16:39:26.593Z,100502.41
2023-03-03T16:41:57.390Z,100499.91
2023-03-03T16:44:43.541Z,100505.09
2023-03-03T16:47:39.910Z,100514.53
2023-03-03T16:50:26.374Z,100514.59
2023-03-03T16:53:03.809Z,100503.44
2023-03-03T16:56:03.571Z,100497.38
2023-03-03T16:58:55.223Z,100492.28
2023-03-03T17:01:40.774Z,100496.63
2023-03-03T17:04:30.917Z,100505.91
2023-03-03T17:07:18.972Z,100505.16
2023-03-03T17:10:23.219Z,100501.63
2023-03-03T17:13:02.907Z,100503.38
2023-03-03T17:15:39.766Z,100493.09
2023-03-03T17:18:25.533Z,100497.41
2023-03-03T17:21:00.505Z,100501.78
2023-03-03T17:23:54.910Z,100505.28
2023-03-03T17:26:43.861Z,100501.78
2023-03-03T17:29:32.963Z,100497.47
2023-03-03T17:32:00.907Z,100494.03
2023-03-03T17:34:33.810Z,100505.97
2023-03-03T17:37:31.329Z,100511.28
2023-03-03T17:40:25.055Z,100510.41
2023-03-03T17:43:22.402Z,100511.88
2023-03-03T17:45:54.457Z,100506.75
2023-03-03T17:48:42.097Z,100494.72
2023-03-03T17:51:33.234Z,100486.16
2023-03-03T17:54:22.177Z,100487.91
2023-03-03T17:57:08.887Z,100487.13
2023-03-03T18:00:06.816Z,100484.56
2023-03-03T18:03:07.712Z,100487.97
2023-03-03T18:05:46.895Z,100488.88
2023-03-03T18:08:27.081Z,100496.50
2023-03-03T18:11:11.845Z,100489.63
2023-03-03T18:13:55.686Z,100499.91
2023-03-03T18:16:41.693Z,100487.06
2023-03-03T18:19:28.088Z,100487.09
2023-03-03T18:22:14.030Z,100478.47
2023-03-03T18:24:50.628Z,100479.47
2023-03-03T18:27:48.797Z,100483.66
2023-03-03T18:30:25.070Z,100478.47
2023-03-03T18:33:01.007Z,100468.84
2023-03-03T18:35:38.384Z,100474.88
2023-03-03T18:38:19.864Z,100469.00
2023-03-03T18:41:21.718Z,100474.06
2023-03-03T18:44:23.690Z,100467.47
2023-03-03T18:46:53.277Z,100457.88
2023-03-03T18:49:47.379Z,100461.31
2023-03-03T18:52:28.845Z,100459.66
2023-03-03T18:55:05.264Z,100462.13
2023-03-03T18:57:33.031Z,100458.66
2023-03-03T19:00:37.601Z,100453.56
2023-03-03T19:03:25.649Z,100453.44
2023-03-03T19:05:57.710Z,100452.56
2023-03-03T19:08:30.093Z,100455.25
2023-03-03T19:11:02.358Z,100450.91
2023-03-03T19:13:37.786Z,100450.78
2023-03-03T19:16:25.402Z,100458.59
2023-03-03T19:18:56.111Z,100438.78
2023-03-03T19:21:30.020Z,100443.88
2023-03-03T19:24:06.065Z,100437.03
2023-03-03T19:27:02.226Z,100434.56
2023-03-03T19:30:11.165Z,100430.34
2023-03-03T19:33:00.168Z,100426.97
2023-03-03T19:35:37.734Z,100422.59
2023-03-03T19:38:05.887Z,100428.66
2023-03-03T19:41:00.487Z,100431.34
2023-03-03T19:43:55.720Z,100428.66
2023-03-03T19:46:43.707Z,100437.19
2023-03-03T19:49:20.771Z,100432.94
2023-03-03T19:51:48.433Z,100413.19
2023-03-03T19:54:38.826Z,100416.56
2023-03-03T19:57:17.238Z,100408.97
2023-03-03T20:00:07.436Z,100391.81
2023-03-03T20:02:39.724Z,100396.97
2023-03-03T20:05:39.552Z,100385.06
2023-03-03T20:08:30.498Z,100383.28
2023-03-03T20:11:13.367Z,100390.16
2023-03-03T20:14:02.785Z,100397.78
2023-03-03T20:16:41.322Z,100396.84
2023-03-03T20:19:43.348Z,100387.47
2023-03-03T20:22:29.365Z,100389.19
2023-03-03T20:25:14.537Z,100395.16
2023-03-03T20:27:51.446Z,100373.72
2023-03-03T20:30:34.431Z,100356.63
2023-03-03T20:33:14.805Z,100348.94
2023-03-03T20:36:01.137Z,100353.91
2023-03-03T20:39:04.402Z,100360.88
2023-03-03T20:41:45.393Z,100377.97
2023-03-03T20:44:19.063Z,100366.00
2023-03-03T20:46:55.612Z,100355.78
2023-03-03T20:49:32.283Z,100356.66
2023-03-03T20:52:08.400Z,100348.13
2023-03-03T20:55:04.183Z,100343.81
2023-03-03T20:57:51.456Z,100353.19
2023-03-03T21:00:51.402Z,100355.91
2023-03-03T21:03:31.579Z,100347.22
2023-03-03T21:06:02.511Z,100342.97
2023-03-03T21:08:49.521Z,100342.09
2023-03-03T21:11:30.969Z,100335.25
2023-03-03T21:14:11.602Z,100335.25
2023-03-03T21:16:41.913Z,100331.75
2023-03-03T21:19:23.195Z,100325.81
2023-03-03T21:21:52.947Z,100321.56
2023-03-03T21:24:21.015Z,100319.00
2023-03-03T21:26:56.720Z,100317.38
2023-03-03T21:29:35.837Z,100313.06
2023-03-03T21:32:09.294Z,100306.19
2023-03-03T21:34:39.867Z,100302.75
2023-03-03T21:37:15.385Z,100289.00
2023-03-03T21:39:44.538Z,100298.44
2023-03-03T21:42:20.989Z,100286.41
2023-03-03T21:44:51.340Z,100288.16
2023-03-03T21:47:20.256Z,100280.44
2023-03-03T21:49:50.690Z,100277.84
2023-03-03T21:52:20.536Z,100277.00
2023-03-03T21:54:50.849Z,100273.50
2023-03-03T21:57:19.053Z,100262.34
2023-03-03T21:59:47.472Z,100266.59
2023-03-03T22:02:15.191Z,100261.53
2023-03-03T22:04:43.306Z,100249.47
2023-03-03T22:07:11.202Z,100247.75
2023-03-03T22:09:39.817Z,100246.91
2023-03-03T22:12:08.208Z,100244.31
2023-03-03T22:14:36.238Z,100235.72
2023-03-03T22:17:03.929Z,100243.50
2023-03-03T22:19:34.186Z,100225.44
2023-03-03T22:22:02.042Z,100231.47
2023-03-03T22:24:30.637Z,100219.50
2023-03-03T22:26:58.323Z,100228.94
2023-03-03T22:29:26.727Z,100213.47
2023-03-03T22:31:54.506Z,100220.34
2023-03-03T22:34:22.774Z,100215.19
2023-03-03T22:36:51.264Z,100203.16
2023-03-03T22:39:20.045Z,100198.88
2023-03-03T22:41:48.126Z,100190.28
2023-03-03T22:44:16.104Z,100180.81
2023-03-03T22:46:45.227Z,100173.09
2023-03-03T22:49:13.240Z,100173.97
2023-03-03T22:51:40.924Z,100172.22
2023-03-03T22:54:08.830Z,100160.22
2023-03-03T22:56:36.440Z,100172.22
2023-03-03T22:59:04.328Z,100160.22
2023-03-03T23:01:32.139Z,100150.78
2023-03-03T23:04:00.048Z,100148.16
2023-03-03T23:06:27.806Z,100123.28
2023-03-03T23:08:55.734Z,100136.19
2023-03-03T23:11:24.743Z,100138.75
2023-03-03T23:13:52.966Z,100143.91
2023-03-03T23:16:20.635Z,100132.72
2023-03-03T23:18:49.199Z,100136.16
2023-03-03T23:21:17.525Z,100127.59
2023-03-03T23:23:45.440Z,100125.88
2023-03-03T23:26:13.073Z,100119.00
2023-03-03T23:28:40.980Z,100120.75
2023-03-03T23:31:08.797Z,100112.13
2023-03-03T23:33:36.673Z,100112.13
2023-03-03T23:36:04.628Z,100110.38
2023-03-03T23:38:32.532Z,100105.25
2023-03-03T23:41:00.219Z,100092.34
2023-03-03T23:43:28.084Z,100093.25
2023-03-03T23:45:55.784Z,100094.06
2023-03-03T23:48:23.722Z,100089.78
2023-03-03T23:50:51.433Z,100079.47
2023-03-03T23:53:19.496Z,100087.19
2023-03-03T23:55:47.166Z,100078.63
2023-03-03T23:58:15.103Z,100072.59
